sensor_id;sensor_type;location;lat;lon;timestamp;P1;durP1;ratioP1;P2;durP2;ratioP2
64052;SDS011;50299;49.524;8.536;2023-08-31T00:02:09;6.68;;;5.05;;
64052;SDS011;50299;49.524;8.536;2023-08-31T00:04:39;4.80;;;4.32;;
64052;SDS011;50299;49.524;8.536;2023-08-31T00:07:06;4.78;;;4.22;;
64052;SDS011;50299;49.524;8.536;2023-08-31T00:09:33;4.60;;;3.83;;
64052;SDS011;50299;49.524;8.536;2023-08-31T00:12:03;6.05;;;4.68;;
64052;SDS011;50299;49.524;8.536;2023-08-31T00:14:33;5.28;;;4.80;;
64052;SDS011;50299;49.524;8.536;2023-08-31T00:16:59;5.72;;;4.47;;
64052;SDS011;50299;49.524;8.536;2023-08-31T00:19:26;6.43;;;3.72;;
64052;SDS011;50299;49.524;8.536;2023-08-31T00:21:55;6.07;;;5.00;;
64052;SDS011;50299;49.524;8.536;2023-08-31T00:24:24;9.65;;;4.90;;
64052;SDS011;50299;49.524;8.536;2023-08-31T00:26:56;4.35;;;4.05;;
64052;SDS011;50299;49.524;8.536;2023-08-31T00:29:22;4.20;;;3.72;;
64052;SDS011;50299;49.524;8.536;2023-08-31T00:31:51;5.53;;;4.20;;
64052;SDS011;50299;49.524;8.536;2023-08-31T00:34:19;8.45;;;4.22;;
64052;SDS011;50299;49.524;8.536;2023-08-31T00:36:46;5.63;;;4.22;;
64052;SDS011;50299;49.524;8.536;2023-08-31T00:39:13;7.75;;;4.85;;
64052;SDS011;50299;49.524;8.536;2023-08-31T00:41:40;4.70;;;4.30;;
64052;SDS011;50299;49.524;8.536;2023-08-31T00:44:07;6.80;;;4.57;;
64052;SDS011;50299;49.524;8.536;2023-08-31T00:46:35;4.50;;;4.10;;
64052;SDS011;50299;49.524;8.536;2023-08-31T00:49:02;5.30;;;4.18;;
64052;SDS011;50299;49.524;8.536;2023-08-31T00:51:30;3.97;;;3.60;;
64052;SDS011;50299;49.524;8.536;2023-08-31T00:53:57;4.38;;;3.60;;
64052;SDS011;50299;49.524;8.536;2023-08-31T00:56:25;5.07;;;3.55;;
64052;SDS011;50299;49.524;8.536;2023-08-31T00:58:55;5.40;;;4.57;;
64052;SDS011;50299;49.524;8.536;2023-08-31T01:01:35;4.93;;;4.07;;
64052;SDS011;50299;49.524;8.536;2023-08-31T01:04:14;5.40;;;4.43;;
64052;SDS011;50299;49.524;8.536;2023-08-31T01:06:59;5.72;;;4.82;;
64052;SDS011;50299;49.524;8.536;2023-08-31T01:09:43;5.88;;;4.47;;
64052;SDS011;50299;49.524;8.536;2023-08-31T01:12:52;4.20;;;3.90;;
64052;SDS011;50299;49.524;8.536;2023-08-31T01:15:13;5.35;;;4.65;;
64052;SDS011;50299;49.524;8.536;2023-08-31T01:17:50;5.88;;;4.20;;
64052;SDS011;50299;49.524;8.536;2023-08-31T01:20:42;4.85;;;4.45;;
64052;SDS011;50299;49.524;8.536;2023-08-31T01:23:13;6.60;;;4.97;;
64052;SDS011;50299;49.524;8.536;2023-08-31T01:25:42;4.68;;;4.22;;
64052;SDS011;50299;49.524;8.536;2023-08-31T01:28:10;5.28;;;4.28;;
64052;SDS011;50299;49.524;8.536;2023-08-31T01:30:37;4.80;;;3.80;;
64052;SDS011;50299;49.524;8.536;2023-08-31T01:33:04;4.68;;;4.18;;
64052;SDS011;50299;49.524;8.536;2023-08-31T01:35:33;5.28;;;4.43;;
64052;SDS011;50299;49.524;8.536;2023-08-31T01:38:06;4.60;;;4.20;;
64052;SDS011;50299;49.524;8.536;2023-08-31T01:40:43;6.30;;;5.00;;
64052;SDS011;50299;49.524;8.536;2023-08-31T01:43:15;7.85;;;4.80;;
64052;SDS011;50299;49.524;8.536;2023-08-31T01:45:43;6.65;;;4.50;;
64052;SDS011;50299;49.524;8.536;2023-08-31T01:48:13;5.10;;;4.60;;
64052;SDS011;50299;49.524;8.536;2023-08-31T01:50:43;4.53;;;4.13;;
64052;SDS011;50299;49.524;8.536;2023-08-31T01:53:10;7.88;;;4.82;;
64052;SDS011;50299;49.524;8.536;2023-08-31T01:55:37;4.70;;;4.30;;
64052;SDS011;50299;49.524;8.536;2023-08-31T01:58:03;4.90;;;4.50;;
64052;SDS011;50299;49.524;8.536;2023-08-31T02:00:33;5.47;;;4.97;;
64052;SDS011;50299;49.524;8.536;2023-08-31T02:03:01;8.63;;;5.55;;
64052;SDS011;50299;49.524;8.536;2023-08-31T02:05:28;6.93;;;4.50;;
64052;SDS011;50299;49.524;8.536;2023-08-31T02:07:55;5.50;;;4.85;;
64052;SDS011;50299;49.524;8.536;2023-08-31T02:10:22;5.07;;;4.60;;
64052;SDS011;50299;49.524;8.536;2023-08-31T02:12:48;6.40;;;5.15;;
64052;SDS011;50299;49.524;8.536;2023-08-31T02:15:14;59.28;;;9.48;;
64052;SDS011;50299;49.524;8.536;2023-08-31T02:17:41;4.68;;;4.28;;
64052;SDS011;50299;49.524;8.536;2023-08-31T02:20:09;5.30;;;4.80;;
64052;SDS011;50299;49.524;8.536;2023-08-31T02:22:36;7.70;;;5.28;;
64052;SDS011;50299;49.524;8.536;2023-08-31T02:25:03;5.97;;;5.43;;
64052;SDS011;50299;49.524;8.536;2023-08-31T02:27:30;7.30;;;4.97;;
64052;SDS011;50299;49.524;8.536;2023-08-31T02:29:56;6.30;;;5.70;;
64052;SDS011;50299;49.524;8.536;2023-08-31T02:32:23;6.55;;;5.95;;
64052;SDS011;50299;49.524;8.536;2023-08-31T02:34:50;6.50;;;6.00;;
64052;SDS011;50299;49.524;8.536;2023-08-31T02:37:16;5.75;;;5.15;;
64052;SDS011;50299;49.524;8.536;2023-08-31T02:39:43;6.38;;;5.82;;
64052;SDS011;50299;49.524;8.536;2023-08-31T02:42:10;6.60;;;6.03;;
64052;SDS011;50299;49.524;8.536;2023-08-31T02:44:39;7.65;;;6.88;;
64052;SDS011;50299;49.524;8.536;2023-08-31T02:47:05;8.32;;;5.47;;
64052;SDS011;50299;49.524;8.536;2023-08-31T02:49:33;7.07;;;6.40;;
64052;SDS011;50299;49.524;8.536;2023-08-31T02:52:00;6.90;;;6.18;;
64052;SDS011;50299;49.524;8.536;2023-08-31T02:54:26;7.70;;;6.53;;
64052;SDS011;50299;49.524;8.536;2023-08-31T02:56:53;6.93;;;6.28;;
64052;SDS011;50299;49.524;8.536;2023-08-31T02:59:22;12.52;;;7.00;;
64052;SDS011;50299;49.524;8.536;2023-08-31T03:01:48;7.32;;;5.75;;
64052;SDS011;50299;49.524;8.536;2023-08-31T03:04:15;6.32;;;4.95;;
64052;SDS011;50299;49.524;8.536;2023-08-31T03:06:44;79.20;;;13.27;;
64052;SDS011;50299;49.524;8.536;2023-08-31T03:09:12;14.60;;;7.50;;
64052;SDS011;50299;49.524;8.536;2023-08-31T03:11:39;74.53;;;14.15;;
64052;SDS011;50299;49.524;8.536;2023-08-31T03:14:08;82.20;;;15.57;;
64052;SDS011;50299;49.524;8.536;2023-08-31T03:16:36;16.02;;;7.55;;
64052;SDS011;50299;49.524;8.536;2023-08-31T03:19:02;10.13;;;7.10;;
64052;SDS011;50299;49.524;8.536;2023-08-31T03:21:29;42.58;;;9.48;;
64052;SDS011;50299;49.524;8.536;2023-08-31T03:23:55;30.15;;;7.95;;
64052;SDS011;50299;49.524;8.536;2023-08-31T03:26:22;103.75;;;15.10;;
64052;SDS011;50299;49.524;8.536;2023-08-31T03:28:48;16.65;;;7.57;;
64052;SDS011;50299;49.524;8.536;2023-08-31T03:31:15;9.38;;;7.00;;
64052;SDS011;50299;49.524;8.536;2023-08-31T03:33:42;67.28;;;11.90;;
64052;SDS011;50299;49.524;8.536;2023-08-31T03:36:08;14.05;;;7.90;;
64052;SDS011;50299;49.524;8.536;2023-08-31T03:38:35;10.48;;;7.18;;
64052;SDS011;50299;49.524;8.536;2023-08-31T03:41:05;7.03;;;6.43;;
64052;SDS011;50299;49.524;8.536;2023-08-31T03:43:31;8.73;;;7.70;;
64052;SDS011;50299;49.524;8.536;2023-08-31T03:45:58;38.10;;;9.10;;
64052;SDS011;50299;49.524;8.536;2023-08-31T03:48:26;33.88;;;9.52;;
64052;SDS011;50299;49.524;8.536;2023-08-31T03:50:55;10.98;;;8.35;;
64052;SDS011;50299;49.524;8.536;2023-08-31T03:53:24;7.75;;;6.38;;
64052;SDS011;50299;49.524;8.536;2023-08-31T03:55:51;8.63;;;7.72;;
64052;SDS011;50299;49.524;8.536;2023-08-31T03:58:18;9.60;;;8.05;;
64052;SDS011;50299;49.524;8.536;2023-08-31T04:00:50;8.85;;;7.43;;
64052;SDS011;50299;49.524;8.536;2023-08-31T04:03:19;19.10;;;9.00;;
64052;SDS011;50299;49.524;8.536;2023-08-31T04:05:46;103.88;;;17.13;;
64052;SDS011;50299;49.524;8.536;2023-08-31T04:08:13;9.38;;;8.45;;
64052;SDS011;50299;49.524;8.536;2023-08-31T04:10:41;7.82;;;7.13;;
64052;SDS011;50299;49.524;8.536;2023-08-31T04:13:08;155.82;;;20.02;;
64052;SDS011;50299;49.524;8.536;2023-08-31T04:15:37;11.05;;;8.70;;
64052;SDS011;50299;49.524;8.536;2023-08-31T04:18:03;7.55;;;6.78;;
64052;SDS011;50299;49.524;8.536;2023-08-31T04:20:32;9.40;;;7.35;;
64052;SDS011;50299;49.524;8.536;2023-08-31T04:22:59;7.30;;;6.38;;
64052;SDS011;50299;49.524;8.536;2023-08-31T04:25:28;11.07;;;8.05;;
64052;SDS011;50299;49.524;8.536;2023-08-31T04:27:55;8.45;;;7.32;;
64052;SDS011;50299;49.524;8.536;2023-08-31T04:30:25;21.92;;;9.55;;
64052;SDS011;50299;49.524;8.536;2023-08-31T04:32:55;13.95;;;8.30;;
64052;SDS011;50299;49.524;8.536;2023-08-31T04:35:22;13.05;;;8.88;;
64052;SDS011;50299;49.524;8.536;2023-08-31T04:37:50;9.15;;;8.13;;
64052;SDS011;50299;49.524;8.536;2023-08-31T04:40:17;8.90;;;7.30;;
64052;SDS011;50299;49.524;8.536;2023-08-31T04:42:44;10.80;;;7.90;;
64052;SDS011;50299;49.524;8.536;2023-08-31T04:45:13;78.20;;;15.75;;
64052;SDS011;50299;49.524;8.536;2023-08-31T04:47:40;16.38;;;8.90;;
64052;SDS011;50299;49.524;8.536;2023-08-31T04:50:08;29.08;;;10.27;;
64052;SDS011;50299;49.524;8.536;2023-08-31T04:52:37;8.38;;;7.57;;
64052;SDS011;50299;49.524;8.536;2023-08-31T04:55:05;20.08;;;8.55;;
64052;SDS011;50299;49.524;8.536;2023-08-31T04:57:35;10.85;;;8.30;;
64052;SDS011;50299;49.524;8.536;2023-08-31T05:00:02;32.08;;;10.50;;
64052;SDS011;50299;49.524;8.536;2023-08-31T05:05:00;9.52;;;8.55;;
64052;SDS011;50299;49.524;8.536;2023-08-31T05:07:30;11.27;;;8.13;;
64052;SDS011;50299;49.524;8.536;2023-08-31T05:09:58;8.73;;;7.82;;
64052;SDS011;50299;49.524;8.536;2023-08-31T05:12:27;9.70;;;8.77;;
64052;SDS011;50299;49.524;8.536;2023-08-31T05:14:54;10.60;;;7.97;;
64052;SDS011;50299;49.524;8.536;2023-08-31T05:17:24;7.32;;;6.63;;
64052;SDS011;50299;49.524;8.536;2023-08-31T05:19:50;9.05;;;8.00;;
64052;SDS011;50299;49.524;8.536;2023-08-31T05:22:17;8.05;;;7.28;;
64052;SDS011;50299;49.524;8.536;2023-08-31T05:24:44;8.32;;;7.53;;
64052;SDS011;50299;49.524;8.536;2023-08-31T05:27:18;7.85;;;7.07;;
64052;SDS011;50299;49.524;8.536;2023-08-31T05:29:47;8.80;;;7.00;;
64052;SDS011;50299;49.524;8.536;2023-08-31T05:32:14;8.00;;;7.28;;
64052;SDS011;50299;49.524;8.536;2023-08-31T05:34:41;8.57;;;7.68;;
64052;SDS011;50299;49.524;8.536;2023-08-31T05:37:10;7.97;;;7.28;;
64052;SDS011;50299;49.524;8.536;2023-08-31T05:39:37;8.52;;;7.82;;
64052;SDS011;50299;49.524;8.536;2023-08-31T05:42:03;8.10;;;7.35;;
64052;SDS011;50299;49.524;8.536;2023-08-31T05:44:34;7.97;;;7.13;;
64052;SDS011;50299;49.524;8.536;2023-08-31T05:47:00;9.07;;;7.55;;
64052;SDS011;50299;49.524;8.536;2023-08-31T05:49:27;9.30;;;7.45;;
64052;SDS011;50299;49.524;8.536;2023-08-31T05:51:56;10.02;;;6.65;;
64052;SDS011;50299;49.524;8.536;2023-08-31T05:54:23;8.55;;;7.32;;
64052;SDS011;50299;49.524;8.536;2023-08-31T05:56:50;8.70;;;7.43;;
64052;SDS011;50299;49.524;8.536;2023-08-31T06:01:47;8.93;;;8.13;;
64052;SDS011;50299;49.524;8.536;2023-08-31T06:04:14;8.60;;;7.32;;
64052;SDS011;50299;49.524;8.536;2023-08-31T06:06:41;8.57;;;7.75;;
64052;SDS011;50299;49.524;8.536;2023-08-31T06:09:08;8.20;;;7.05;;
64052;SDS011;50299;49.524;8.536;2023-08-31T06:11:35;11.00;;;7.30;;
64052;SDS011;50299;49.524;8.536;2023-08-31T06:14:08;9.68;;;7.80;;
64052;SDS011;50299;49.524;8.536;2023-08-31T06:16:39;8.27;;;7.30;;
64052;SDS011;50299;49.524;8.536;2023-08-31T06:19:06;10.60;;;7.70;;
64052;SDS011;50299;49.524;8.536;2023-08-31T06:21:33;9.85;;;8.50;;
64052;SDS011;50299;49.524;8.536;2023-08-31T06:23:59;9.55;;;8.10;;
64052;SDS011;50299;49.524;8.536;2023-08-31T06:26:26;10.18;;;8.00;;
64052;SDS011;50299;49.524;8.536;2023-08-31T06:28:52;10.45;;;7.35;;
64052;SDS011;50299;49.524;8.536;2023-08-31T06:31:19;8.05;;;7.25;;
64052;SDS011;50299;49.524;8.536;2023-08-31T06:33:48;7.50;;;6.90;;
64052;SDS011;50299;49.524;8.536;2023-08-31T06:36:14;6.78;;;6.18;;
64052;SDS011;50299;49.524;8.536;2023-08-31T06:38:41;6.40;;;5.82;;
64052;SDS011;50299;49.524;8.536;2023-08-31T06:41:11;6.65;;;6.05;;
64052;SDS011;50299;49.524;8.536;2023-08-31T06:43:46;6.68;;;5.38;;
64052;SDS011;50299;49.524;8.536;2023-08-31T06:46:15;8.25;;;6.35;;
64052;SDS011;50299;49.524;8.536;2023-08-31T06:48:50;9.50;;;4.30;;
64052;SDS011;50299;49.524;8.536;2023-08-31T06:51:17;6.57;;;4.18;;
64052;SDS011;50299;49.524;8.536;2023-08-31T06:53:43;4.97;;;4.57;;
64052;SDS011;50299;49.524;8.536;2023-08-31T06:56:10;6.47;;;4.35;;
64052;SDS011;50299;49.524;8.536;2023-08-31T06:58:39;5.13;;;3.95;;
64052;SDS011;50299;49.524;8.536;2023-08-31T07:01:06;6.07;;;5.47;;
64052;SDS011;50299;49.524;8.536;2023-08-31T07:03:32;6.07;;;4.40;;
64052;SDS011;50299;49.524;8.536;2023-08-31T07:06:02;4.80;;;4.15;;
64052;SDS011;50299;49.524;8.536;2023-08-31T07:08:29;4.78;;;4.25;;
64052;SDS011;50299;49.524;8.536;2023-08-31T07:10:57;4.82;;;4.15;;
64052;SDS011;50299;49.524;8.536;2023-08-31T07:13:26;5.47;;;4.97;;
64052;SDS011;50299;49.524;8.536;2023-08-31T07:15:58;5.00;;;4.50;;
64052;SDS011;50299;49.524;8.536;2023-08-31T07:18:24;5.13;;;4.57;;
64052;SDS011;50299;49.524;8.536;2023-08-31T07:20:54;7.13;;;3.47;;
64052;SDS011;50299;49.524;8.536;2023-08-31T07:23:21;5.13;;;4.22;;
64052;SDS011;50299;49.524;8.536;2023-08-31T07:25:47;5.43;;;3.90;;
64052;SDS011;50299;49.524;8.536;2023-08-31T07:30:44;5.80;;;4.85;;
64052;SDS011;50299;49.524;8.536;2023-08-31T07:33:10;4.47;;;4.13;;
64052;SDS011;50299;49.524;8.536;2023-08-31T07:35:56;4.63;;;4.22;;
64052;SDS011;50299;49.524;8.536;2023-08-31T07:38:24;4.00;;;3.63;;
64052;SDS011;50299;49.524;8.536;2023-08-31T07:40:59;4.85;;;4.15;;
64052;SDS011;50299;49.524;8.536;2023-08-31T07:43:31;4.70;;;3.45;;
64052;SDS011;50299;49.524;8.536;2023-08-31T07:45:58;7.20;;;3.67;;
64052;SDS011;50299;49.524;8.536;2023-08-31T07:48:25;4.78;;;3.75;;
64052;SDS011;50299;49.524;8.536;2023-08-31T07:50:52;8.02;;;4.45;;
64052;SDS011;50299;49.524;8.536;2023-08-31T07:53:19;4.43;;;4.07;;
64052;SDS011;50299;49.524;8.536;2023-08-31T07:55:52;3.85;;;3.45;;
64052;SDS011;50299;49.524;8.536;2023-08-31T07:58:21;5.30;;;4.00;;
64052;SDS011;50299;49.524;8.536;2023-08-31T08:00:48;5.57;;;4.28;;
64052;SDS011;50299;49.524;8.536;2023-08-31T08:03:15;4.88;;;4.30;;
64052;SDS011;50299;49.524;8.536;2023-08-31T08:05:42;5.03;;;4.43;;
64052;SDS011;50299;49.524;8.536;2023-08-31T08:08:09;4.35;;;3.70;;
64052;SDS011;50299;49.524;8.536;2023-08-31T08:10:42;4.55;;;3.72;;
64052;SDS011;50299;49.524;8.536;2023-08-31T08:13:11;6.55;;;4.07;;
64052;SDS011;50299;49.524;8.536;2023-08-31T08:15:38;4.47;;;3.67;;
64052;SDS011;50299;49.524;8.536;2023-08-31T08:18:06;5.82;;;3.75;;
64052;SDS011;50299;49.524;8.536;2023-08-31T08:20:36;3.95;;;3.45;;
64052;SDS011;50299;49.524;8.536;2023-08-31T08:23:06;3.63;;;3.10;;
64052;SDS011;50299;49.524;8.536;2023-08-31T08:25:33;3.30;;;2.80;;
64052;SDS011;50299;49.524;8.536;2023-08-31T08:28:09;5.78;;;3.05;;
64052;SDS011;50299;49.524;8.536;2023-08-31T08:30:47;5.22;;;2.22;;
64052;SDS011;50299;49.524;8.536;2023-08-31T08:35:43;4.05;;;2.25;;
64052;SDS011;50299;49.524;8.536;2023-08-31T08:38:10;4.65;;;2.55;;
64052;SDS011;50299;49.524;8.536;2023-08-31T08:40:40;5.93;;;2.42;;
64052;SDS011;50299;49.524;8.536;2023-08-31T08:43:16;5.15;;;2.35;;
64052;SDS011;50299;49.524;8.536;2023-08-31T08:45:51;5.40;;;2.00;;
64052;SDS011;50299;49.524;8.536;2023-08-31T08:48:18;5.38;;;2.08;;
64052;SDS011;50299;49.524;8.536;2023-08-31T08:50:49;3.47;;;2.10;;
64052;SDS011;50299;49.524;8.536;2023-08-31T08:53:16;3.80;;;2.20;;
64052;SDS011;50299;49.524;8.536;2023-08-31T08:55:45;6.32;;;2.60;;
64052;SDS011;50299;49.524;8.536;2023-08-31T08:58:12;4.97;;;2.22;;
64052;SDS011;50299;49.524;8.536;2023-08-31T09:00:39;5.68;;;2.50;;
64052;SDS011;50299;49.524;8.536;2023-08-31T09:03:09;5.57;;;2.38;;
64052;SDS011;50299;49.524;8.536;2023-08-31T09:05:38;5.45;;;2.35;;
64052;SDS011;50299;49.524;8.536;2023-08-31T09:08:08;5.13;;;2.42;;
64052;SDS011;50299;49.524;8.536;2023-08-31T09:10:40;5.53;;;3.03;;
64052;SDS011;50299;49.524;8.536;2023-08-31T09:13:16;3.38;;;2.10;;
64052;SDS011;50299;49.524;8.536;2023-08-31T09:15:44;4.07;;;2.13;;
64052;SDS011;50299;49.524;8.536;2023-08-31T09:18:50;4.53;;;2.05;;
64052;SDS011;50299;49.524;8.536;2023-08-31T09:21:10;3.30;;;1.95;;
64052;SDS011;50299;49.524;8.536;2023-08-31T09:23:37;4.15;;;2.35;;
64052;SDS011;50299;49.524;8.536;2023-08-31T09:26:04;4.70;;;2.15;;
64052;SDS011;50299;49.524;8.536;2023-08-31T09:28:34;4.95;;;2.17;;
64052;SDS011;50299;49.524;8.536;2023-08-31T09:31:10;4.38;;;1.98;;
64052;SDS011;50299;49.524;8.536;2023-08-31T09:33:37;3.20;;;2.25;;
64052;SDS011;50299;49.524;8.536;2023-08-31T09:36:05;2.75;;;1.80;;
64052;SDS011;50299;49.524;8.536;2023-08-31T09:38:41;3.00;;;1.90;;
64052;SDS011;50299;49.524;8.536;2023-08-31T09:41:11;3.17;;;2.15;;
64052;SDS011;50299;49.524;8.536;2023-08-31T09:43:38;3.38;;;1.92;;
64052;SDS011;50299;49.524;8.536;2023-08-31T09:46:05;3.40;;;1.73;;
64052;SDS011;50299;49.524;8.536;2023-08-31T09:51:11;8.57;;;2.30;;
64052;SDS011;50299;49.524;8.536;2023-08-31T09:53:38;3.25;;;2.13;;
64052;SDS011;50299;49.524;8.536;2023-08-31T09:56:10;3.55;;;1.80;;
64052;SDS011;50299;49.524;8.536;2023-08-31T09:58:42;2.30;;;1.80;;
64052;SDS011;50299;49.524;8.536;2023-08-31T10:01:09;3.58;;;1.63;;
64052;SDS011;50299;49.524;8.536;2023-08-31T10:03:53;4.10;;;1.88;;
64052;SDS011;50299;49.524;8.536;2023-08-31T10:06:20;2.30;;;1.80;;
64052;SDS011;50299;49.524;8.536;2023-08-31T10:08:48;3.83;;;1.92;;
64052;SDS011;50299;49.524;8.536;2023-08-31T10:11:18;2.92;;;1.55;;
64052;SDS011;50299;49.524;8.536;2023-08-31T10:13:49;6.30;;;2.13;;
64052;SDS011;50299;49.524;8.536;2023-08-31T10:16:19;3.78;;;1.85;;
64052;SDS011;50299;49.524;8.536;2023-08-31T10:18:46;4.30;;;2.00;;
64052;SDS011;50299;49.524;8.536;2023-08-31T10:21:16;2.65;;;1.80;;
64052;SDS011;50299;49.524;8.536;2023-08-31T10:23:47;2.40;;;1.63;;
64052;SDS011;50299;49.524;8.536;2023-08-31T10:26:27;4.22;;;2.25;;
64052;SDS011;50299;49.524;8.536;2023-08-31T10:29:00;2.97;;;1.73;;
64052;SDS011;50299;49.524;8.536;2023-08-31T10:31:32;2.47;;;2.28;;
64052;SDS011;50299;49.524;8.536;2023-08-31T10:34:03;2.25;;;1.98;;
64052;SDS011;50299;49.524;8.536;2023-08-31T10:36:37;2.78;;;1.70;;
64052;SDS011;50299;49.524;8.536;2023-08-31T10:39:16;2.38;;;1.80;;
64052;SDS011;50299;49.524;8.536;2023-08-31T10:42:44;3.20;;;1.90;;
64052;SDS011;50299;49.524;8.536;2023-08-31T10:47:42;1.88;;;1.60;;
64052;SDS011;50299;49.524;8.536;2023-08-31T10:50:16;2.67;;;1.92;;
64052;SDS011;50299;49.524;8.536;2023-08-31T10:52:45;2.17;;;1.90;;
64052;SDS011;50299;49.524;8.536;2023-08-31T10:55:12;2.83;;;1.95;;
64052;SDS011;50299;49.524;8.536;2023-08-31T10:57:39;2.55;;;1.60;;
64052;SDS011;50299;49.524;8.536;2023-08-31T11:00:07;3.58;;;1.70;;
64052;SDS011;50299;49.524;8.536;2023-08-31T11:02:45;2.53;;;1.88;;
64052;SDS011;50299;49.524;8.536;2023-08-31T11:05:18;2.03;;;1.60;;
64052;SDS011;50299;49.524;8.536;2023-08-31T11:07:49;3.65;;;2.20;;
64052;SDS011;50299;49.524;8.536;2023-08-31T11:12:51;2.13;;;1.88;;
64052;SDS011;50299;49.524;8.536;2023-08-31T11:15:21;2.55;;;1.73;;
64052;SDS011;50299;49.524;8.536;2023-08-31T11:17:51;2.88;;;1.77;;
64052;SDS011;50299;49.524;8.536;2023-08-31T11:20:20;2.95;;;2.00;;
64052;SDS011;50299;49.524;8.536;2023-08-31T11:22:52;3.55;;;2.05;;
64052;SDS011;50299;49.524;8.536;2023-08-31T11:25:22;3.33;;;2.00;;
64052;SDS011;50299;49.524;8.536;2023-08-31T11:27:53;3.20;;;1.77;;
64052;SDS011;50299;49.524;8.536;2023-08-31T11:30:36;2.22;;;1.70;;
64052;SDS011;50299;49.524;8.536;2023-08-31T11:33:09;2.08;;;1.80;;
64052;SDS011;50299;49.524;8.536;2023-08-31T11:35:41;3.90;;;1.60;;
64052;SDS011;50299;49.524;8.536;2023-08-31T11:38:11;2.30;;;1.73;;
64052;SDS011;50299;49.524;8.536;2023-08-31T11:40:38;3.72;;;2.13;;
64052;SDS011;50299;49.524;8.536;2023-08-31T11:43:08;3.65;;;2.00;;
64052;SDS011;50299;49.524;8.536;2023-08-31T11:45:38;2.47;;;1.70;;
64052;SDS011;50299;49.524;8.536;2023-08-31T11:48:11;6.30;;;2.03;;
64052;SDS011;50299;49.524;8.536;2023-08-31T11:50:38;3.38;;;1.95;;
64052;SDS011;50299;49.524;8.536;2023-08-31T11:53:09;3.17;;;1.90;;
64052;SDS011;50299;49.524;8.536;2023-08-31T11:55:48;4.50;;;2.08;;
64052;SDS011;50299;49.524;8.536;2023-08-31T11:58:16;3.88;;;2.00;;
64052;SDS011;50299;49.524;8.536;2023-08-31T12:00:43;3.90;;;2.33;;
64052;SDS011;50299;49.524;8.536;2023-08-31T12:03:10;3.42;;;1.80;;
64052;SDS011;50299;49.524;8.536;2023-08-31T12:05:47;5.20;;;2.05;;
64052;SDS011;50299;49.524;8.536;2023-08-31T12:08:15;5.22;;;2.13;;
64052;SDS011;50299;49.524;8.536;2023-08-31T12:10:45;4.60;;;2.50;;
64052;SDS011;50299;49.524;8.536;2023-08-31T12:13:15;5.47;;;2.22;;
64052;SDS011;50299;49.524;8.536;2023-08-31T12:15:52;3.85;;;2.00;;
64052;SDS011;50299;49.524;8.536;2023-08-31T12:18:20;5.95;;;2.53;;
64052;SDS011;50299;49.524;8.536;2023-08-31T12:20:50;9.38;;;2.80;;
64052;SDS011;50299;49.524;8.536;2023-08-31T12:23:20;7.00;;;2.28;;
64052;SDS011;50299;49.524;8.536;2023-08-31T12:25:54;5.28;;;2.15;;
64052;SDS011;50299;49.524;8.536;2023-08-31T12:28:24;5.07;;;2.08;;
64052;SDS011;50299;49.524;8.536;2023-08-31T12:30:54;4.55;;;2.17;;
64052;SDS011;50299;49.524;8.536;2023-08-31T12:33:22;4.82;;;2.47;;
64052;SDS011;50299;49.524;8.536;2023-08-31T12:36:02;4.38;;;2.28;;
64052;SDS011;50299;49.524;8.536;2023-08-31T12:38:30;3.13;;;1.70;;
64052;SDS011;50299;49.524;8.536;2023-08-31T12:40:57;4.00;;;2.40;;
64052;SDS011;50299;49.524;8.536;2023-08-31T12:46:00;6.50;;;2.50;;
64052;SDS011;50299;49.524;8.536;2023-08-31T12:48:32;7.22;;;2.45;;
64052;SDS011;50299;49.524;8.536;2023-08-31T12:50:59;3.67;;;2.60;;
64052;SDS011;50299;49.524;8.536;2023-08-31T12:53:26;4.78;;;2.55;;
64052;SDS011;50299;49.524;8.536;2023-08-31T12:55:54;5.28;;;2.20;;
64052;SDS011;50299;49.524;8.536;2023-08-31T12:58:23;5.70;;;1.98;;
64052;SDS011;50299;49.524;8.536;2023-08-31T13:00:57;4.70;;;2.35;;
64052;SDS011;50299;49.524;8.536;2023-08-31T13:03:27;3.95;;;2.20;;
64052;SDS011;50299;49.524;8.536;2023-08-31T13:05:57;6.25;;;2.03;;
64052;SDS011;50299;49.524;8.536;2023-08-31T13:08:23;4.68;;;2.17;;
64052;SDS011;50299;49.524;8.536;2023-08-31T13:10:51;5.43;;;2.30;;
64052;SDS011;50299;49.524;8.536;2023-08-31T13:13:23;4.45;;;2.40;;
64052;SDS011;50299;49.524;8.536;2023-08-31T13:15:51;4.80;;;2.28;;
64052;SDS011;50299;49.524;8.536;2023-08-31T13:18:20;4.82;;;2.15;;
64052;SDS011;50299;49.524;8.536;2023-08-31T13:20:50;5.35;;;2.10;;
64052;SDS011;50299;49.524;8.536;2023-08-31T13:23:23;5.13;;;2.20;;
64052;SDS011;50299;49.524;8.536;2023-08-31T13:25:50;4.22;;;2.15;;
64052;SDS011;50299;49.524;8.536;2023-08-31T13:28:25;3.63;;;2.40;;
64052;SDS011;50299;49.524;8.536;2023-08-31T13:31:03;5.65;;;2.65;;
64052;SDS011;50299;49.524;8.536;2023-08-31T13:33:30;5.65;;;2.47;;
64052;SDS011;50299;49.524;8.536;2023-08-31T13:35:57;4.15;;;2.25;;
64052;SDS011;50299;49.524;8.536;2023-08-31T13:38:30;4.97;;;2.47;;
64052;SDS011;50299;49.524;8.536;2023-08-31T13:40:57;5.07;;;2.20;;
64052;SDS011;50299;49.524;8.536;2023-08-31T13:43:24;3.03;;;1.95;;
64052;SDS011;50299;49.524;8.536;2023-08-31T13:45:52;5.45;;;2.50;;
64052;SDS011;50299;49.524;8.536;2023-08-31T13:48:22;5.20;;;2.45;;
64052;SDS011;50299;49.524;8.536;2023-08-31T13:50:55;2.78;;;2.15;;
64052;SDS011;50299;49.524;8.536;2023-08-31T13:53:24;4.60;;;2.30;;
64052;SDS011;50299;49.524;8.536;2023-08-31T13:55:55;3.55;;;2.28;;
64052;SDS011;50299;49.524;8.536;2023-08-31T13:58:24;4.63;;;2.65;;
64052;SDS011;50299;49.524;8.536;2023-08-31T14:00:53;3.35;;;2.40;;
64052;SDS011;50299;49.524;8.536;2023-08-31T14:03:20;4.80;;;2.10;;
64052;SDS011;50299;49.524;8.536;2023-08-31T14:05:47;6.43;;;2.10;;
64052;SDS011;50299;49.524;8.536;2023-08-31T14:08:20;4.20;;;2.20;;
64052;SDS011;50299;49.524;8.536;2023-08-31T14:10:46;6.18;;;2.35;;
64052;SDS011;50299;49.524;8.536;2023-08-31T14:13:28;5.25;;;2.00;;
64052;SDS011;50299;49.524;8.536;2023-08-31T14:15:55;2.92;;;1.60;;
64052;SDS011;50299;49.524;8.536;2023-08-31T14:18:21;5.00;;;2.13;;
64052;SDS011;50299;49.524;8.536;2023-08-31T14:21:00;5.60;;;1.90;;
64052;SDS011;50299;49.524;8.536;2023-08-31T14:23:28;7.25;;;2.17;;
64052;SDS011;50299;49.524;8.536;2023-08-31T14:26:02;6.85;;;2.50;;
64052;SDS011;50299;49.524;8.536;2023-08-31T14:28:30;3.42;;;2.00;;
64052;SDS011;50299;49.524;8.536;2023-08-31T14:31:08;3.92;;;2.47;;
64052;SDS011;50299;49.524;8.536;2023-08-31T14:33:38;4.07;;;2.10;;
64052;SDS011;50299;49.524;8.536;2023-08-31T14:36:06;4.15;;;1.90;;
64052;SDS011;50299;49.524;8.536;2023-08-31T14:38:34;5.38;;;2.35;;
64052;SDS011;50299;49.524;8.536;2023-08-31T14:41:01;5.03;;;1.88;;
64052;SDS011;50299;49.524;8.536;2023-08-31T14:43:30;5.93;;;2.00;;
64052;SDS011;50299;49.524;8.536;2023-08-31T14:45:57;3.40;;;2.17;;
64052;SDS011;50299;49.524;8.536;2023-08-31T14:48:24;4.60;;;2.35;;
64052;SDS011;50299;49.524;8.536;2023-08-31T14:50:51;3.42;;;1.80;;
64052;SDS011;50299;49.524;8.536;2023-08-31T14:53:21;4.18;;;2.30;;
64052;SDS011;50299;49.524;8.536;2023-08-31T14:55:49;5.05;;;1.90;;
64052;SDS011;50299;49.524;8.536;2023-08-31T14:58:21;4.93;;;2.67;;
64052;SDS011;50299;49.524;8.536;2023-08-31T15:00:48;3.40;;;2.25;;
64052;SDS011;50299;49.524;8.536;2023-08-31T15:03:25;3.22;;;1.83;;
64052;SDS011;50299;49.524;8.536;2023-08-31T15:06:00;6.85;;;2.42;;
64052;SDS011;50299;49.524;8.536;2023-08-31T15:08:39;4.40;;;2.30;;
64052;SDS011;50299;49.524;8.536;2023-08-31T15:11:08;5.40;;;2.28;;
64052;SDS011;50299;49.524;8.536;2023-08-31T15:13:41;5.28;;;2.42;;
64052;SDS011;50299;49.524;8.536;2023-08-31T15:16:13;5.20;;;2.08;;
64052;SDS011;50299;49.524;8.536;2023-08-31T15:18:42;7.00;;;2.67;;
64052;SDS011;50299;49.524;8.536;2023-08-31T15:21:10;4.40;;;2.60;;